Millville Municipal Airport Millville US
ICAO: KMIV
IATA: MIV
Category: Medium
Scheduled Services: No

Elevation: 85 ft
TransAlt. 18000 ft.

Airport Communications:
APP/DEP:124.6
ASOS:128.125
CTAF:123.65
RDO:123.65
UNICOM:123

KMIV Zoom In..

If you have problems with the map follow the link
https://www.worldairports.se/pages/airport.php?
ICAO=KMIV

Runways:

(A) RW 10 length 6003 ft width 150 ft
ILS 110.90 / hdg 101

(B) RW 14 length 5058 ft width 150 ft
---- / hdg 146

(C) RW 28 length 6003 ft width 150 ft
---- / hdg 281

(D) RW 32 length 5058 ft width 150 ft
---- / hdg 326

Location; KMIV
Day. 14 / Time. 14.54 Zulu
* Altimeter: 29.41
* Temperature: 13° c. 55.4°f.
* Wind from: 160° Speed 03 kn.
Dewpoint: 12° c.
Visibility: 3/4 Statute Miles.
Clouds: Overcast 400 ft.
Conditions: Mist.

KMIV 141454Z AUTO 16003KT 3/4SM BR OVC004 13/12 A2941 RMK AO2 SLP958 60001 T01280122 58029


Wind From 160°
Speed 03 kn.

 
 
jpsmedia worldairports.se 2019   terms of use